sensor_id;sensor_type;location;lat;lon;timestamp;P1;durP1;ratioP1;P2;durP2;ratioP2
5951;SDS011;3001;42.622;23.194;2023-07-08T00:00:10;17.17;;;15.67;;
5951;SDS011;3001;42.622;23.194;2023-07-08T00:02:39;18.53;;;16.90;;
5951;SDS011;3001;42.622;23.194;2023-07-08T00:05:07;20.20;;;18.27;;
5951;SDS011;3001;42.622;23.194;2023-07-08T00:07:34;20.27;;;18.37;;
5951;SDS011;3001;42.622;23.194;2023-07-08T00:10:00;20.83;;;18.83;;
5951;SDS011;3001;42.622;23.194;2023-07-08T00:12:27;20.80;;;18.80;;
5951;SDS011;3001;42.622;23.194;2023-07-08T00:14:55;21.13;;;18.83;;
5951;SDS011;3001;42.622;23.194;2023-07-08T00:17:22;20.87;;;18.87;;
5951;SDS011;3001;42.622;23.194;2023-07-08T00:19:48;21.23;;;19.10;;
5951;SDS011;3001;42.622;23.194;2023-07-08T00:22:16;20.87;;;18.97;;
5951;SDS011;3001;42.622;23.194;2023-07-08T00:24:42;20.83;;;18.70;;
5951;SDS011;3001;42.622;23.194;2023-07-08T00:27:10;21.87;;;19.33;;
5951;SDS011;3001;42.622;23.194;2023-07-08T00:29:38;20.70;;;18.70;;
5951;SDS011;3001;42.622;23.194;2023-07-08T00:32:13;21.63;;;19.40;;
5951;SDS011;3001;42.622;23.194;2023-07-08T00:34:41;20.47;;;18.50;;
5951;SDS011;3001;42.622;23.194;2023-07-08T00:37:09;20.60;;;18.60;;
5951;SDS011;3001;42.622;23.194;2023-07-08T00:39:37;21.63;;;19.63;;
5951;SDS011;3001;42.622;23.194;2023-07-08T00:42:06;20.10;;;18.30;;
5951;SDS011;3001;42.622;23.194;2023-07-08T00:44:40;19.93;;;18.10;;
5951;SDS011;3001;42.622;23.194;2023-07-08T00:47:07;20.13;;;18.23;;
5951;SDS011;3001;42.622;23.194;2023-07-08T00:49:39;19.93;;;18.07;;
5951;SDS011;3001;42.622;23.194;2023-07-08T00:52:22;20.03;;;18.33;;
5951;SDS011;3001;42.622;23.194;2023-07-08T00:54:50;20.80;;;18.97;;
5951;SDS011;3001;42.622;23.194;2023-07-08T00:57:18;20.37;;;18.50;;
5951;SDS011;3001;42.622;23.194;2023-07-08T00:59:47;19.70;;;17.93;;
5951;SDS011;3001;42.622;23.194;2023-07-08T01:02:20;21.33;;;18.87;;
5951;SDS011;3001;42.622;23.194;2023-07-08T01:04:54;22.33;;;20.27;;
5951;SDS011;3001;42.622;23.194;2023-07-08T01:07:24;20.87;;;18.87;;
5951;SDS011;3001;42.622;23.194;2023-07-08T01:09:53;20.10;;;18.37;;
5951;SDS011;3001;42.622;23.194;2023-07-08T01:12:25;21.17;;;19.20;;
5951;SDS011;3001;42.622;23.194;2023-07-08T01:14:55;19.33;;;17.83;;
5951;SDS011;3001;42.622;23.194;2023-07-08T01:17:23;20.43;;;18.67;;
5951;SDS011;3001;42.622;23.194;2023-07-08T01:19:50;21.17;;;19.10;;
5951;SDS011;3001;42.622;23.194;2023-07-08T01:22:22;19.47;;;17.50;;
5951;SDS011;3001;42.622;23.194;2023-07-08T01:24:48;19.77;;;18.07;;
5951;SDS011;3001;42.622;23.194;2023-07-08T01:27:17;20.30;;;18.40;;
5951;SDS011;3001;42.622;23.194;2023-07-08T01:29:45;19.07;;;17.53;;
5951;SDS011;3001;42.622;23.194;2023-07-08T01:32:13;21.07;;;19.13;;
5951;SDS011;3001;42.622;23.194;2023-07-08T01:34:43;21.03;;;19.00;;
5951;SDS011;3001;42.622;23.194;2023-07-08T01:37:26;20.80;;;18.87;;
5951;SDS011;3001;42.622;23.194;2023-07-08T01:39:58;20.37;;;18.67;;
5951;SDS011;3001;42.622;23.194;2023-07-08T01:42:40;20.20;;;18.60;;
5951;SDS011;3001;42.622;23.194;2023-07-08T01:45:09;20.07;;;18.10;;
5951;SDS011;3001;42.622;23.194;2023-07-08T01:47:36;19.23;;;17.23;;
5951;SDS011;3001;42.622;23.194;2023-07-08T01:50:03;18.90;;;17.10;;
5951;SDS011;3001;42.622;23.194;2023-07-08T01:52:32;17.43;;;16.03;;
5951;SDS011;3001;42.622;23.194;2023-07-08T01:54:59;16.80;;;15.30;;
5951;SDS011;3001;42.622;23.194;2023-07-08T01:57:25;17.10;;;15.80;;
5951;SDS011;3001;42.622;23.194;2023-07-08T01:59:52;18.20;;;16.70;;
5951;SDS011;3001;42.622;23.194;2023-07-08T02:02:19;18.07;;;16.67;;
5951;SDS011;3001;42.622;23.194;2023-07-08T02:04:45;18.83;;;17.20;;
5951;SDS011;3001;42.622;23.194;2023-07-08T02:07:12;17.40;;;15.87;;
5951;SDS011;3001;42.622;23.194;2023-07-08T02:09:40;18.87;;;17.23;;
5951;SDS011;3001;42.622;23.194;2023-07-08T02:12:07;18.80;;;17.10;;
5951;SDS011;3001;42.622;23.194;2023-07-08T02:14:34;17.57;;;16.10;;
5951;SDS011;3001;42.622;23.194;2023-07-08T02:17:00;18.83;;;17.33;;
5951;SDS011;3001;42.622;23.194;2023-07-08T02:19:30;18.00;;;16.50;;
5951;SDS011;3001;42.622;23.194;2023-07-08T02:21:57;18.20;;;16.70;;
5951;SDS011;3001;42.622;23.194;2023-07-08T02:24:24;16.60;;;15.30;;
5951;SDS011;3001;42.622;23.194;2023-07-08T02:26:52;17.60;;;16.20;;
5951;SDS011;3001;42.622;23.194;2023-07-08T02:29:18;19.17;;;17.47;;
5951;SDS011;3001;42.622;23.194;2023-07-08T02:31:45;17.67;;;16.17;;
5951;SDS011;3001;42.622;23.194;2023-07-08T02:34:12;17.57;;;16.17;;
5951;SDS011;3001;42.622;23.194;2023-07-08T02:36:39;17.70;;;16.17;;
5951;SDS011;3001;42.622;23.194;2023-07-08T02:39:05;16.70;;;15.40;;
5951;SDS011;3001;42.622;23.194;2023-07-08T02:41:32;18.23;;;16.73;;
5951;SDS011;3001;42.622;23.194;2023-07-08T02:44:00;16.83;;;15.43;;
5951;SDS011;3001;42.622;23.194;2023-07-08T02:46:27;17.70;;;16.23;;
5951;SDS011;3001;42.622;23.194;2023-07-08T02:48:53;18.73;;;16.77;;
5951;SDS011;3001;42.622;23.194;2023-07-08T02:51:20;16.87;;;15.67;;
5951;SDS011;3001;42.622;23.194;2023-07-08T02:53:47;16.23;;;15.00;;
5951;SDS011;3001;42.622;23.194;2023-07-08T02:56:15;15.50;;;14.40;;
5951;SDS011;3001;42.622;23.194;2023-07-08T02:58:42;17.30;;;15.63;;
5951;SDS011;3001;42.622;23.194;2023-07-08T03:01:10;15.90;;;14.63;;
5951;SDS011;3001;42.622;23.194;2023-07-08T03:03:37;15.80;;;14.50;;
5951;SDS011;3001;42.622;23.194;2023-07-08T03:06:04;15.33;;;13.87;;
5951;SDS011;3001;42.622;23.194;2023-07-08T03:08:31;16.20;;;14.90;;
5951;SDS011;3001;42.622;23.194;2023-07-08T03:10:59;16.30;;;15.00;;
5951;SDS011;3001;42.622;23.194;2023-07-08T03:13:27;17.13;;;15.40;;
5951;SDS011;3001;42.622;23.194;2023-07-08T03:15:54;16.83;;;15.30;;
5951;SDS011;3001;42.622;23.194;2023-07-08T03:18:22;15.83;;;14.60;;
5951;SDS011;3001;42.622;23.194;2023-07-08T03:20:51;14.27;;;13.17;;
5951;SDS011;3001;42.622;23.194;2023-07-08T03:23:18;14.30;;;13.23;;
5951;SDS011;3001;42.622;23.194;2023-07-08T03:25:45;13.57;;;12.53;;
5951;SDS011;3001;42.622;23.194;2023-07-08T03:28:12;15.00;;;13.87;;
5951;SDS011;3001;42.622;23.194;2023-07-08T03:30:40;14.37;;;13.27;;
5951;SDS011;3001;42.622;23.194;2023-07-08T03:33:07;14.43;;;13.00;;
5951;SDS011;3001;42.622;23.194;2023-07-08T03:35:35;14.27;;;13.27;;
5951;SDS011;3001;42.622;23.194;2023-07-08T03:38:02;13.97;;;12.87;;
5951;SDS011;3001;42.622;23.194;2023-07-08T03:40:29;14.23;;;13.13;;
5951;SDS011;3001;42.622;23.194;2023-07-08T03:42:55;21.83;;;14.40;;
5951;SDS011;3001;42.622;23.194;2023-07-08T03:45:22;12.97;;;11.80;;
5951;SDS011;3001;42.622;23.194;2023-07-08T03:47:49;12.73;;;11.53;;
5951;SDS011;3001;42.622;23.194;2023-07-08T03:50:17;13.30;;;12.30;;
5951;SDS011;3001;42.622;23.194;2023-07-08T03:52:48;12.07;;;11.27;;
5951;SDS011;3001;42.622;23.194;2023-07-08T03:55:16;13.33;;;12.13;;
5951;SDS011;3001;42.622;23.194;2023-07-08T03:57:42;12.67;;;11.67;;
5951;SDS011;3001;42.622;23.194;2023-07-08T04:00:09;12.40;;;11.37;;
5951;SDS011;3001;42.622;23.194;2023-07-08T04:02:37;13.30;;;12.23;;
5951;SDS011;3001;42.622;23.194;2023-07-08T04:05:04;12.43;;;11.53;;
5951;SDS011;3001;42.622;23.194;2023-07-08T04:07:31;10.87;;;10.13;;
5951;SDS011;3001;42.622;23.194;2023-07-08T04:09:59;12.27;;;11.27;;
5951;SDS011;3001;42.622;23.194;2023-07-08T04:12:26;11.30;;;10.33;;
5951;SDS011;3001;42.622;23.194;2023-07-08T04:14:53;12.13;;;11.03;;
5951;SDS011;3001;42.622;23.194;2023-07-08T04:17:20;10.90;;;10.10;;
5951;SDS011;3001;42.622;23.194;2023-07-08T04:19:48;10.80;;;10.17;;
5951;SDS011;3001;42.622;23.194;2023-07-08T04:22:15;12.03;;;11.13;;
5951;SDS011;3001;42.622;23.194;2023-07-08T04:24:42;12.10;;;11.30;;
5951;SDS011;3001;42.622;23.194;2023-07-08T04:27:10;11.17;;;10.17;;
5951;SDS011;3001;42.622;23.194;2023-07-08T04:29:41;11.10;;;10.40;;
5951;SDS011;3001;42.622;23.194;2023-07-08T04:32:07;10.73;;;10.03;;
5951;SDS011;3001;42.622;23.194;2023-07-08T04:34:34;10.50;;;10.00;;
5951;SDS011;3001;42.622;23.194;2023-07-08T04:37:01;10.77;;;10.17;;
5951;SDS011;3001;42.622;23.194;2023-07-08T04:39:29;11.33;;;10.53;;
5951;SDS011;3001;42.622;23.194;2023-07-08T04:41:56;11.50;;;10.70;;
5951;SDS011;3001;42.622;23.194;2023-07-08T04:44:24;11.40;;;10.73;;
5951;SDS011;3001;42.622;23.194;2023-07-08T04:46:52;11.63;;;10.83;;
5951;SDS011;3001;42.622;23.194;2023-07-08T04:49:22;10.80;;;10.20;;
5951;SDS011;3001;42.622;23.194;2023-07-08T04:51:49;11.27;;;10.37;;
5951;SDS011;3001;42.622;23.194;2023-07-08T04:54:16;11.30;;;10.60;;
5951;SDS011;3001;42.622;23.194;2023-07-08T04:56:43;10.80;;;9.90;;
5951;SDS011;3001;42.622;23.194;2023-07-08T04:59:13;10.27;;;9.73;;
5951;SDS011;3001;42.622;23.194;2023-07-08T05:01:42;11.93;;;10.93;;
5951;SDS011;3001;42.622;23.194;2023-07-08T05:04:11;10.60;;;9.90;;
5951;SDS011;3001;42.622;23.194;2023-07-08T05:06:39;11.00;;;10.20;;
5951;SDS011;3001;42.622;23.194;2023-07-08T05:09:07;10.53;;;9.83;;
5951;SDS011;3001;42.622;23.194;2023-07-08T05:11:34;10.70;;;9.87;;
5951;SDS011;3001;42.622;23.194;2023-07-08T05:14:01;10.73;;;10.07;;
5951;SDS011;3001;42.622;23.194;2023-07-08T05:16:29;10.60;;;9.80;;
5951;SDS011;3001;42.622;23.194;2023-07-08T05:19:00;10.03;;;9.33;;
5951;SDS011;3001;42.622;23.194;2023-07-08T05:21:28;11.20;;;10.13;;
5951;SDS011;3001;42.622;23.194;2023-07-08T05:23:58;10.37;;;9.67;;
5951;SDS011;3001;42.622;23.194;2023-07-08T05:26:25;10.30;;;9.77;;
5951;SDS011;3001;42.622;23.194;2023-07-08T05:28:51;10.87;;;10.07;;
5951;SDS011;3001;42.622;23.194;2023-07-08T05:31:18;10.53;;;9.50;;
5951;SDS011;3001;42.622;23.194;2023-07-08T05:33:45;10.30;;;9.33;;
5951;SDS011;3001;42.622;23.194;2023-07-08T05:36:13;9.83;;;9.33;;
5951;SDS011;3001;42.622;23.194;2023-07-08T05:38:39;10.23;;;9.63;;
5951;SDS011;3001;42.622;23.194;2023-07-08T05:41:06;9.70;;;9.00;;
5951;SDS011;3001;42.622;23.194;2023-07-08T05:43:33;10.10;;;9.37;;
5951;SDS011;3001;42.622;23.194;2023-07-08T05:46:00;10.30;;;9.60;;
5951;SDS011;3001;42.622;23.194;2023-07-08T05:48:27;13.07;;;12.20;;
5951;SDS011;3001;42.622;23.194;2023-07-08T05:50:55;13.40;;;12.40;;
5951;SDS011;3001;42.622;23.194;2023-07-08T05:53:23;14.60;;;13.57;;
5951;SDS011;3001;42.622;23.194;2023-07-08T05:55:50;14.90;;;13.77;;
5951;SDS011;3001;42.622;23.194;2023-07-08T05:58:16;24.23;;;18.60;;
5951;SDS011;3001;42.622;23.194;2023-07-08T06:00:43;15.07;;;13.87;;
5951;SDS011;3001;42.622;23.194;2023-07-08T06:03:10;12.67;;;11.57;;
5951;SDS011;3001;42.622;23.194;2023-07-08T06:05:37;12.60;;;11.60;;
5951;SDS011;3001;42.622;23.194;2023-07-08T06:08:05;12.73;;;11.73;;
5951;SDS011;3001;42.622;23.194;2023-07-08T06:10:33;14.00;;;13.17;;
5951;SDS011;3001;42.622;23.194;2023-07-08T06:13:00;13.20;;;12.00;;
5951;SDS011;3001;42.622;23.194;2023-07-08T06:15:27;12.00;;;11.13;;
5951;SDS011;3001;42.622;23.194;2023-07-08T06:17:54;12.63;;;11.63;;
5951;SDS011;3001;42.622;23.194;2023-07-08T06:20:20;13.00;;;11.77;;
5951;SDS011;3001;42.622;23.194;2023-07-08T06:22:47;13.17;;;12.07;;
5951;SDS011;3001;42.622;23.194;2023-07-08T06:25:14;13.00;;;12.10;;
5951;SDS011;3001;42.622;23.194;2023-07-08T06:27:42;14.30;;;13.17;;
5951;SDS011;3001;42.622;23.194;2023-07-08T06:30:09;14.53;;;13.23;;
5951;SDS011;3001;42.622;23.194;2023-07-08T06:32:36;14.27;;;13.20;;
5951;SDS011;3001;42.622;23.194;2023-07-08T06:35:03;12.90;;;11.87;;
5951;SDS011;3001;42.622;23.194;2023-07-08T06:37:30;12.43;;;11.63;;
5951;SDS011;3001;42.622;23.194;2023-07-08T06:39:56;11.80;;;10.80;;
5951;SDS011;3001;42.622;23.194;2023-07-08T06:42:23;12.03;;;11.23;;
5951;SDS011;3001;42.622;23.194;2023-07-08T06:44:51;12.50;;;11.43;;
5951;SDS011;3001;42.622;23.194;2023-07-08T06:47:18;10.33;;;9.63;;
5951;SDS011;3001;42.622;23.194;2023-07-08T06:49:46;10.30;;;9.80;;
5951;SDS011;3001;42.622;23.194;2023-07-08T06:52:13;8.90;;;8.40;;
5951;SDS011;3001;42.622;23.194;2023-07-08T06:54:40;9.77;;;9.27;;
5951;SDS011;3001;42.622;23.194;2023-07-08T06:57:06;10.13;;;9.13;;
5951;SDS011;3001;42.622;23.194;2023-07-08T06:59:33;9.60;;;8.90;;
5951;SDS011;3001;42.622;23.194;2023-07-08T07:02:02;8.63;;;8.13;;
5951;SDS011;3001;42.622;23.194;2023-07-08T07:04:29;9.60;;;8.87;;
5951;SDS011;3001;42.622;23.194;2023-07-08T07:06:57;9.10;;;8.40;;
5951;SDS011;3001;42.622;23.194;2023-07-08T07:09:24;9.47;;;8.80;;
5951;SDS011;3001;42.622;23.194;2023-07-08T07:11:50;8.73;;;8.17;;
5951;SDS011;3001;42.622;23.194;2023-07-08T07:14:17;8.50;;;7.83;;
5951;SDS011;3001;42.622;23.194;2023-07-08T07:16:44;8.97;;;8.30;;
5951;SDS011;3001;42.622;23.194;2023-07-08T07:19:12;9.13;;;8.40;;
5951;SDS011;3001;42.622;23.194;2023-07-08T07:21:38;7.40;;;7.00;;
5951;SDS011;3001;42.622;23.194;2023-07-08T07:24:05;7.93;;;7.37;;
5951;SDS011;3001;42.622;23.194;2023-07-08T07:26:33;8.90;;;8.40;;
5951;SDS011;3001;42.622;23.194;2023-07-08T07:29:01;8.57;;;8.07;;
5951;SDS011;3001;42.622;23.194;2023-07-08T07:31:28;7.70;;;7.20;;
5951;SDS011;3001;42.622;23.194;2023-07-08T07:33:56;8.67;;;8.17;;
5951;SDS011;3001;42.622;23.194;2023-07-08T07:36:24;9.43;;;8.53;;
5951;SDS011;3001;42.622;23.194;2023-07-08T07:38:50;10.63;;;9.63;;
5951;SDS011;3001;42.622;23.194;2023-07-08T07:41:17;8.63;;;8.13;;
5951;SDS011;3001;42.622;23.194;2023-07-08T07:43:44;7.23;;;6.80;;
5951;SDS011;3001;42.622;23.194;2023-07-08T07:46:11;7.67;;;7.27;;
5951;SDS011;3001;42.622;23.194;2023-07-08T07:48:38;8.53;;;7.93;;
5951;SDS011;3001;42.622;23.194;2023-07-08T07:51:05;7.93;;;7.50;;
5951;SDS011;3001;42.622;23.194;2023-07-08T07:53:37;7.73;;;7.10;;
5951;SDS011;3001;42.622;23.194;2023-07-08T07:56:04;10.70;;;9.73;;
5951;SDS011;3001;42.622;23.194;2023-07-08T07:58:31;13.10;;;11.87;;
5951;SDS011;3001;42.622;23.194;2023-07-08T08:00:58;8.97;;;8.37;;
5951;SDS011;3001;42.622;23.194;2023-07-08T08:03:25;30.97;;;18.37;;
5951;SDS011;3001;42.622;23.194;2023-07-08T08:05:52;14.20;;;12.27;;
5951;SDS011;3001;42.622;23.194;2023-07-08T08:08:19;28.53;;;20.00;;
5951;SDS011;3001;42.622;23.194;2023-07-08T08:10:48;12.53;;;11.53;;
5951;SDS011;3001;42.622;23.194;2023-07-08T08:13:15;27.53;;;22.40;;
5951;SDS011;3001;42.622;23.194;2023-07-08T08:15:42;13.10;;;12.10;;
5951;SDS011;3001;42.622;23.194;2023-07-08T08:18:09;9.13;;;8.63;;
5951;SDS011;3001;42.622;23.194;2023-07-08T08:20:35;7.60;;;7.10;;
5951;SDS011;3001;42.622;23.194;2023-07-08T08:23:04;7.80;;;7.30;;
5951;SDS011;3001;42.622;23.194;2023-07-08T08:25:31;6.90;;;6.40;;
5951;SDS011;3001;42.622;23.194;2023-07-08T08:27:59;7.37;;;6.87;;
5951;SDS011;3001;42.622;23.194;2023-07-08T08:30:26;7.00;;;6.60;;
5951;SDS011;3001;42.622;23.194;2023-07-08T08:32:53;7.33;;;6.77;;
5951;SDS011;3001;42.622;23.194;2023-07-08T08:35:19;7.77;;;7.37;;
5951;SDS011;3001;42.622;23.194;2023-07-08T08:37:46;6.97;;;6.67;;
5951;SDS011;3001;42.622;23.194;2023-07-08T08:40:13;6.73;;;6.40;;
5951;SDS011;3001;42.622;23.194;2023-07-08T08:42:43;6.00;;;5.70;;
5951;SDS011;3001;42.622;23.194;2023-07-08T08:45:16;7.10;;;6.60;;
5951;SDS011;3001;42.622;23.194;2023-07-08T08:47:46;7.00;;;6.27;;
5951;SDS011;3001;42.622;23.194;2023-07-08T08:50:25;7.13;;;6.73;;
5951;SDS011;3001;42.622;23.194;2023-07-08T08:52:56;6.43;;;6.13;;
5951;SDS011;3001;42.622;23.194;2023-07-08T08:55:24;6.60;;;6.30;;
5951;SDS011;3001;42.622;23.194;2023-07-08T08:57:53;6.07;;;5.77;;
5951;SDS011;3001;42.622;23.194;2023-07-08T09:00:54;6.83;;;6.47;;
5951;SDS011;3001;42.622;23.194;2023-07-08T09:03:28;6.40;;;6.10;;
5951;SDS011;3001;42.622;23.194;2023-07-08T09:06:04;6.23;;;5.93;;
5951;SDS011;3001;42.622;23.194;2023-07-08T09:08:37;6.20;;;5.80;;
5951;SDS011;3001;42.622;23.194;2023-07-08T09:11:10;6.17;;;5.87;;
5951;SDS011;3001;42.622;23.194;2023-07-08T09:13:44;6.13;;;5.77;;
5951;SDS011;3001;42.622;23.194;2023-07-08T09:16:15;6.33;;;6.03;;
5951;SDS011;3001;42.622;23.194;2023-07-08T09:18:55;5.87;;;5.47;;
5951;SDS011;3001;42.622;23.194;2023-07-08T09:21:27;5.47;;;5.17;;
5951;SDS011;3001;42.622;23.194;2023-07-08T09:24:00;6.20;;;5.70;;
5951;SDS011;3001;42.622;23.194;2023-07-08T09:26:31;7.03;;;6.63;;
5951;SDS011;3001;42.622;23.194;2023-07-08T09:28:59;6.47;;;6.07;;
5951;SDS011;3001;42.622;23.194;2023-07-08T09:31:28;6.40;;;6.10;;
5951;SDS011;3001;42.622;23.194;2023-07-08T09:34:05;6.33;;;6.03;;
5951;SDS011;3001;42.622;23.194;2023-07-08T09:36:33;5.77;;;5.47;;
5951;SDS011;3001;42.622;23.194;2023-07-08T09:39:00;5.93;;;5.63;;
5951;SDS011;3001;42.622;23.194;2023-07-08T09:41:29;6.27;;;5.87;;
5951;SDS011;3001;42.622;23.194;2023-07-08T09:46:52;5.50;;;5.20;;
5951;SDS011;3001;42.622;23.194;2023-07-08T09:49:20;6.03;;;5.73;;
5951;SDS011;3001;42.622;23.194;2023-07-08T09:51:49;5.53;;;5.25;;
5951;SDS011;3001;42.622;23.194;2023-07-08T09:54:17;5.78;;;5.47;;
5951;SDS011;3001;42.622;23.194;2023-07-08T09:56:46;5.57;;;5.38;;
5951;SDS011;3001;42.622;23.194;2023-07-08T09:59:19;6.35;;;5.80;;
5951;SDS011;3001;42.622;23.194;2023-07-08T10:01:49;5.43;;;5.22;;
5951;SDS011;3001;42.622;23.194;2023-07-08T10:04:19;5.22;;;5.03;;
5951;SDS011;3001;42.622;23.194;2023-07-08T10:06:46;4.78;;;4.57;;
5951;SDS011;3001;42.622;23.194;2023-07-08T10:09:14;4.90;;;4.65;;
5951;SDS011;3001;42.622;23.194;2023-07-08T10:11:47;4.82;;;4.63;;
5951;SDS011;3001;42.622;23.194;2023-07-08T10:14:23;4.78;;;4.57;;
5951;SDS011;3001;42.622;23.194;2023-07-08T10:16:53;5.07;;;4.78;;
5951;SDS011;3001;42.622;23.194;2023-07-08T10:19:22;5.75;;;5.45;;
5951;SDS011;3001;42.622;23.194;2023-07-08T10:21:51;5.82;;;5.53;;
5951;SDS011;3001;42.622;23.194;2023-07-08T10:24:30;5.10;;;4.90;;
5951;SDS011;3001;42.622;23.194;2023-07-08T10:27:08;4.85;;;4.65;;
5951;SDS011;3001;42.622;23.194;2023-07-08T10:29:44;5.60;;;5.35;;
5951;SDS011;3001;42.622;23.194;2023-07-08T10:32:20;4.57;;;4.30;;
5951;SDS011;3001;42.622;23.194;2023-07-08T10:35:00;4.53;;;4.32;;
5951;SDS011;3001;42.622;23.194;2023-07-08T10:37:39;5.10;;;4.90;;
5951;SDS011;3001;42.622;23.194;2023-07-08T10:40:22;5.22;;;5.03;;
5951;SDS011;3001;42.622;23.194;2023-07-08T10:43:03;4.32;;;4.13;;
5951;SDS011;3001;42.622;23.194;2023-07-08T10:45:44;4.82;;;4.63;;
5951;SDS011;3001;42.622;23.194;2023-07-08T10:48:29;4.55;;;4.35;;
5951;SDS011;3001;42.622;23.194;2023-07-08T10:51:14;4.38;;;4.18;;
5951;SDS011;3001;42.622;23.194;2023-07-08T10:53:51;4.60;;;4.40;;
5951;SDS011;3001;42.622;23.194;2023-07-08T10:56:35;4.20;;;4.00;;
5951;SDS011;3001;42.622;23.194;2023-07-08T10:59:19;4.55;;;4.25;;
5951;SDS011;3001;42.622;23.194;2023-07-08T11:02:13;4.82;;;4.63;;
5951;SDS011;3001;42.622;23.194;2023-07-08T11:04:51;4.65;;;4.45;;
5951;SDS011;3001;42.622;23.194;2023-07-08T11:07:32;5.00;;;4.75;;
5951;SDS011;3001;42.622;23.194;2023-07-08T11:10:05;4.00;;;3.80;;
5951;SDS011;3001;42.622;23.194;2023-07-08T11:12:39;4.40;;;4.20;;
5951;SDS011;3001;42.622;23.194;2023-07-08T11:15:13;4.78;;;4.55;;
5951;SDS011;3001;42.622;23.194;2023-07-08T11:17:46;4.15;;;3.97;;
5951;SDS011;3001;42.622;23.194;2023-07-08T11:20:18;4.18;;;3.97;;
5951;SDS011;3001;42.622;23.194;2023-07-08T11:22:51;4.78;;;4.50;;
5951;SDS011;3001;42.622;23.194;2023-07-08T11:25:21;5.28;;;4.78;;
5951;SDS011;3001;42.622;23.194;2023-07-08T11:27:54;4.50;;;4.20;;
5951;SDS011;3001;42.622;23.194;2023-07-08T11:30:23;4.85;;;4.65;;
5951;SDS011;3001;42.622;23.194;2023-07-08T11:32:54;4.55;;;4.35;;
5951;SDS011;3001;42.622;23.194;2023-07-08T11:35:29;4.60;;;4.40;;
5951;SDS011;3001;42.622;23.194;2023-07-08T11:38:03;4.55;;;4.25;;
5951;SDS011;3001;42.622;23.194;2023-07-08T11:40:31;4.80;;;4.60;;
5951;SDS011;3001;42.622;23.194;2023-07-08T11:43:04;4.45;;;4.20;;
5951;SDS011;3001;42.622;23.194;2023-07-08T11:45:33;4.63;;;4.20;;
5951;SDS011;3001;42.622;23.194;2023-07-08T11:48:04;4.68;;;4.38;;
5951;SDS011;3001;42.622;23.194;2023-07-08T11:50:36;4.50;;;4.30;;
5951;SDS011;3001;42.622;23.194;2023-07-08T11:53:07;3.92;;;3.83;;
5951;SDS011;3001;42.622;23.194;2023-07-08T11:55:37;4.55;;;4.35;;
5951;SDS011;3001;42.622;23.194;2023-07-08T11:58:13;6.03;;;5.70;;
5951;SDS011;3001;42.622;23.194;2023-07-08T12:00:51;5.43;;;5.22;;
5951;SDS011;3001;42.622;23.194;2023-07-08T12:03:34;4.28;;;4.07;;
5951;SDS011;3001;42.622;23.194;2023-07-08T12:06:03;5.97;;;4.43;;
5951;SDS011;3001;42.622;23.194;2023-07-08T12:09:14;4.88;;;4.55;;
5951;SDS011;3001;42.622;23.194;2023-07-08T12:11:47;4.90;;;4.47;;
5951;SDS011;3001;42.622;23.194;2023-07-08T12:14:17;8.07;;;4.15;;
5951;SDS011;3001;42.622;23.194;2023-07-08T12:16:43;4.25;;;4.05;;
5951;SDS011;3001;42.622;23.194;2023-07-08T12:19:13;5.13;;;4.82;;
5951;SDS011;3001;42.622;23.194;2023-07-08T12:21:44;5.15;;;4.85;;
5951;SDS011;3001;42.622;23.194;2023-07-08T12:24:11;4.40;;;4.20;;
5951;SDS011;3001;42.622;23.194;2023-07-08T12:26:40;4.25;;;4.05;;
5951;SDS011;3001;42.622;23.194;2023-07-08T12:29:08;4.50;;;4.30;;
5951;SDS011;3001;42.622;23.194;2023-07-08T12:31:37;4.95;;;3.90;;
5951;SDS011;3001;42.622;23.194;2023-07-08T12:34:06;5.65;;;5.25;;
5951;SDS011;3001;42.622;23.194;2023-07-08T12:36:38;4.10;;;3.90;;
5951;SDS011;3001;42.622;23.194;2023-07-08T12:39:05;4.38;;;4.07;;
5951;SDS011;3001;42.622;23.194;2023-07-08T12:41:38;4.22;;;3.92;;
5951;SDS011;3001;42.622;23.194;2023-07-08T12:44:08;3.35;;;3.25;;
5951;SDS011;3001;42.622;23.194;2023-07-08T12:46:43;3.60;;;3.40;;
5951;SDS011;3001;42.622;23.194;2023-07-08T12:49:11;3.95;;;3.75;;
5951;SDS011;3001;42.622;23.194;2023-07-08T12:51:41;3.97;;;3.78;;
5951;SDS011;3001;42.622;23.194;2023-07-08T12:54:09;4.03;;;3.83;;
5951;SDS011;3001;42.622;23.194;2023-07-08T12:56:38;4.10;;;3.80;;
5951;SDS011;3001;42.622;23.194;2023-07-08T12:59:08;4.90;;;4.53;;
5951;SDS011;3001;42.622;23.194;2023-07-08T13:01:40;3.63;;;3.53;;
5951;SDS011;3001;42.622;23.194;2023-07-08T13:04:09;3.70;;;3.50;;
5951;SDS011;3001;42.622;23.194;2023-07-08T13:06:38;3.33;;;3.22;;
5951;SDS011;3001;42.622;23.194;2023-07-08T13:09:07;3.15;;;3.05;;
5951;SDS011;3001;42.622;23.194;2023-07-08T13:11:46;3.40;;;3.30;;
5951;SDS011;3001;42.622;23.194;2023-07-08T13:14:13;3.75;;;3.55;;
5951;SDS011;3001;42.622;23.194;2023-07-08T13:16:41;3.22;;;3.13;;
5951;SDS011;3001;42.622;23.194;2023-07-08T13:19:08;3.42;;;3.33;;
5951;SDS011;3001;42.622;23.194;2023-07-08T13:21:38;3.83;;;3.50;;
5951;SDS011;3001;42.622;23.194;2023-07-08T13:24:07;3.47;;;3.25;;
5951;SDS011;3001;42.622;23.194;2023-07-08T13:26:35;3.08;;;2.97;;
5951;SDS011;3001;42.622;23.194;2023-07-08T13:29:09;3.20;;;3.10;;
5951;SDS011;3001;42.622;23.194;2023-07-08T13:31:40;3.55;;;3.28;;
5951;SDS011;3001;42.622;23.194;2023-07-08T13:34:09;3.17;;;3.08;;
5951;SDS011;3001;42.622;23.194;2023-07-08T13:36:43;5.60;;;5.30;;
5951;SDS011;3001;42.622;23.194;2023-07-08T13:39:14;3.85;;;3.65;;
5951;SDS011;3001;42.622;23.194;2023-07-08T13:41:42;3.38;;;3.28;;
5951;SDS011;3001;42.622;23.194;2023-07-08T13:44:12;5.00;;;3.63;;
5951;SDS011;3001;42.622;23.194;2023-07-08T13:46:39;3.58;;;3.38;;
5951;SDS011;3001;42.622;23.194;2023-07-08T13:49:11;3.20;;;3.10;;
5951;SDS011;3001;42.622;23.194;2023-07-08T13:51:40;3.13;;;3.00;;
5951;SDS011;3001;42.622;23.194;2023-07-08T13:54:09;3.47;;;3.25;;
5951;SDS011;3001;42.622;23.194;2023-07-08T13:56:41;5.43;;;3.17;;
5951;SDS011;3001;42.622;23.194;2023-07-08T13:59:09;3.88;;;3.60;;
5951;SDS011;3001;42.622;23.194;2023-07-08T14:01:40;3.28;;;3.17;;
5951;SDS011;3001;42.622;23.194;2023-07-08T14:04:09;3.25;;;3.15;;
5951;SDS011;3001;42.622;23.194;2023-07-08T14:06:39;3.38;;;3.28;;
5951;SDS011;3001;42.622;23.194;2023-07-08T14:09:07;3.53;;;3.33;;
5951;SDS011;3001;42.622;23.194;2023-07-08T14:11:38;3.50;;;3.30;;
5951;SDS011;3001;42.622;23.194;2023-07-08T14:14:05;3.70;;;3.33;;
5951;SDS011;3001;42.622;23.194;2023-07-08T14:16:33;4.10;;;3.90;;
5951;SDS011;3001;42.622;23.194;2023-07-08T14:19:04;3.58;;;3.40;;
5951;SDS011;3001;42.622;23.194;2023-07-08T14:21:34;3.30;;;3.10;;
5951;SDS011;3001;42.622;23.194;2023-07-08T14:24:04;3.38;;;3.20;;
5951;SDS011;3001;42.622;23.194;2023-07-08T14:26:36;3.63;;;3.42;;
5951;SDS011;3001;42.622;23.194;2023-07-08T14:29:03;3.60;;;3.50;;
5951;SDS011;3001;42.622;23.194;2023-07-08T14:31:29;3.97;;;3.60;;
5951;SDS011;3001;42.622;23.194;2023-07-08T14:33:57;3.47;;;3.28;;
5951;SDS011;3001;42.622;23.194;2023-07-08T14:36:30;3.85;;;3.65;;
5951;SDS011;3001;42.622;23.194;2023-07-08T14:38:57;3.20;;;2.90;;
5951;SDS011;3001;42.622;23.194;2023-07-08T14:41:25;4.25;;;3.88;;
5951;SDS011;3001;42.622;23.194;2023-07-08T14:43:54;3.60;;;3.40;;
5951;SDS011;3001;42.622;23.194;2023-07-08T14:46:21;3.90;;;3.70;;
5951;SDS011;3001;42.622;23.194;2023-07-08T14:48:47;3.45;;;3.15;;
5951;SDS011;3001;42.622;23.194;2023-07-08T14:51:14;3.80;;;3.47;;
5951;SDS011;3001;42.622;23.194;2023-07-08T14:53:42;3.72;;;3.53;;
5951;SDS011;3001;42.622;23.194;2023-07-08T14:56:12;4.75;;;3.38;;
5951;SDS011;3001;42.622;23.194;2023-07-08T14:58:43;3.55;;;3.35;;
5951;SDS011;3001;42.622;23.194;2023-07-08T15:01:13;3.22;;;3.03;;
5951;SDS011;3001;42.622;23.194;2023-07-08T15:03:44;3.17;;;2.97;;